This is the latest recevied weather packets stored in our database for station/object CE4JVU-10. If no packets are shown the sender has not sent any weather packets the latest 10 day(s).
| Time | Temp. | Humidity | Pressure | Rain* | Wind** | Luminosity | Snow |
|---|---|---|---|---|---|---|---|
| 1787511993 | 22.22° C | 52% | 980.4 hPa | - | - | - | - |
| 1787511093 | 22.22° C | 52% | 980.6 hPa | - | - | - | - |
| 1787510192 | 22.78° C | 53% | 980.7 hPa | - | - | - | - |
| 1787509292 | 22.22° C | 53% | 980.9 hPa | - | - | - | - |
| 1787508392 | 21.11° C | 52% | 981.2 hPa | - | - | - | - |
| 1787507492 | 21.11° C | 54% | 981.4 hPa | - | - | - | - |
| 1787506592 | 20.56° C | 54% | 981.4 hPa | - | - | - | - |
| 1787505692 | 20.56° C | 57% | 981.5 hPa | - | - | - | - |
| 1787504792 | 20° C | 57% | 981.6 hPa | - | - | - | - |
| 1787503892 | 19.44° C | 60% | 981.5 hPa | - | - | - | - |
| 1787502992 | 19.44° C | 61% | 981.5 hPa | - | - | - | - |
| 1787502091 | 18.89° C | 60% | 981.6 hPa | - | - | - | - |
| 1787501191 | 19.44° C | 62% | 981.5 hPa | - | - | - | - |
| 1787500291 | 20° C | 68% | 981.3 hPa | - | - | - | - |
| 1787499391 | 20° C | 70% | 981.6 hPa | - | - | - | - |
| 1787498491 | 19.44° C | 67% | 981.7 hPa | - | - | - | - |
| 1787497591 | 20° C | 69% | 981.9 hPa | - | - | - | - |
| 1787496691 | 19.44° C | 69% | 981.8 hPa | - | - | - | - |
| 1787495790 | 18.89° C | 72% | 981.9 hPa | - | - | - | - |
| 1787494890 | 18.33° C | 70% | 981.8 hPa | - | - | - | - |
| 1787493992 | 18.33° C | 67% | 981.7 hPa | - | - | - | - |
| 1787493092 | 18.33° C | 68% | 981.4 hPa | - | - | - | - |
| 1787492192 | 17.78° C | 67% | 981.2 hPa | - | - | - | - |
| 1787491292 | 17.22° C | 67% | 981.3 hPa | - | - | - | - |
| 1787490392 | 17.22° C | 67% | 981.4 hPa | - | - | - | - |
* Rain since midnight (hover to see other rain measurements)
** Current wind speed in m/s (hover to see current wind gust speed)